createdAt,value
2022-11-06T00:01:09.872Z,3.10
2022-11-06T00:03:37.126Z,3.47
2022-11-06T00:06:30.801Z,3.47
2022-11-06T00:08:59.910Z,3.13
2022-11-06T00:11:26.665Z,3.93
2022-11-06T00:13:53.156Z,4.97
2022-11-06T00:16:20.538Z,3.97
2022-11-06T00:18:47.678Z,5.97
2022-11-06T00:21:28.564Z,5.47
2022-11-06T00:23:57.017Z,5.07
2022-11-06T00:26:25.862Z,4.77
2022-11-06T00:28:53.159Z,4.30
2022-11-06T00:31:22.316Z,4.57
2022-11-06T00:33:49.008Z,4.17
2022-11-06T00:36:18.275Z,4.50
2022-11-06T00:38:45.651Z,3.50
2022-11-06T00:41:15.187Z,3.93
2022-11-06T00:43:42.231Z,4.23
2022-11-06T00:46:10.796Z,4.27
2022-11-06T00:48:38.011Z,4.17
2022-11-06T00:51:10.134Z,3.93
2022-11-06T00:53:37.379Z,4.13
2022-11-06T00:56:09.810Z,3.73
2022-11-06T00:58:36.685Z,4.23
2022-11-06T01:01:13.984Z,3.33
2022-11-06T01:03:41.829Z,3.93
2022-11-06T01:06:17.175Z,3.27
2022-11-06T01:08:44.854Z,4.50
2022-11-06T01:11:46.564Z,4.10
2022-11-06T01:14:18.120Z,4.70
2022-11-06T01:16:45.323Z,3.83
2022-11-06T01:19:14.651Z,4.43
2022-11-06T01:21:43.706Z,3.87
2022-11-06T01:24:13.224Z,4.20
2022-11-06T01:26:53.307Z,4.73
2022-11-06T01:29:26.533Z,4.27
2022-11-06T01:31:52.933Z,4.60
2022-11-06T01:34:19.351Z,4.40
2022-11-06T01:36:46.745Z,4.60
2022-11-06T01:39:15.431Z,4.43
2022-11-06T01:41:50.866Z,4.30
2022-11-06T01:44:35.311Z,4.53
2022-11-06T01:47:04.744Z,4.80
2022-11-06T01:49:37.505Z,4.23
2022-11-06T01:52:10.130Z,4.47
2022-11-06T01:54:39.899Z,4.47
2022-11-06T01:57:07.409Z,4.23
2022-11-06T01:59:37.150Z,3.87
2022-11-06T02:02:04.351Z,4.03
2022-11-06T02:04:40.583Z,4.40
2022-11-06T02:07:08.058Z,4.10
2022-11-06T02:09:35.028Z,4.43
2022-11-06T02:12:22.428Z,3.37
2022-11-06T02:14:58.470Z,4.40
2022-11-06T02:17:41.553Z,4.33
2022-11-06T02:20:17.364Z,4.03
2022-11-06T02:23:05.797Z,4.00
2022-11-06T02:25:46.229Z,4.03
2022-11-06T02:28:27.937Z,4.10
2022-11-06T02:30:58.323Z,4.07
2022-11-06T02:33:36.530Z,4.33
2022-11-06T02:36:13.297Z,4.10
2022-11-06T02:38:54.917Z,3.57
2022-11-06T02:41:28.439Z,4.50
2022-11-06T02:43:56.685Z,4.73
2022-11-06T02:46:37.360Z,5.20
2022-11-06T02:49:08.758Z,5.27
2022-11-06T02:51:40.140Z,4.40
2022-11-06T02:54:08.311Z,4.93
2022-11-06T02:56:39.613Z,5.37
2022-11-06T02:59:11.894Z,5.00
2022-11-06T03:01:52.462Z,5.20
2022-11-06T03:04:26.143Z,4.20
2022-11-06T03:07:00.924Z,5.03
2022-11-06T03:09:31.644Z,4.80
2022-11-06T03:12:05.600Z,5.50
2022-11-06T03:14:46.353Z,5.87
2022-11-06T03:17:22.877Z,5.70
2022-11-06T03:20:24.192Z,4.90
2022-11-06T03:22:57.531Z,6.07
2022-11-06T03:25:35.051Z,5.83
2022-11-06T03:28:10.569Z,5.73
2022-11-06T03:30:42.998Z,7.00
2022-11-06T03:33:33.545Z,6.37
2022-11-06T03:36:18.406Z,6.43
2022-11-06T03:38:52.869Z,7.23
2022-11-06T03:41:42.233Z,6.10
2022-11-06T03:44:12.786Z,6.37
2022-11-06T03:46:46.406Z,6.57
2022-11-06T03:49:21.904Z,6.80
2022-11-06T03:51:57.308Z,7.10
2022-11-06T03:54:27.713Z,6.70
2022-11-06T03:57:11.372Z,7.13
2022-11-06T03:59:48.584Z,7.53
2022-11-06T04:02:17.928Z,7.97
2022-11-06T04:04:52.542Z,8.57
2022-11-06T04:07:22.437Z,8.53
2022-11-06T04:10:12.470Z,7.80
2022-11-06T04:13:00.054Z,7.17
2022-11-06T04:15:31.294Z,8.53
2022-11-06T04:17:57.701Z,7.70
2022-11-06T04:20:43.262Z,8.50
2022-11-06T04:23:20.057Z,8.90
2022-11-06T04:26:18.653Z,8.23
2022-11-06T04:29:11.070Z,8.70
2022-11-06T04:31:48.876Z,9.10
2022-11-06T04:34:42.801Z,9.10
2022-11-06T04:37:30.372Z,9.60
2022-11-06T04:40:06.537Z,9.63
2022-11-06T04:42:42.507Z,8.87
2022-11-06T04:45:21.264Z,9.87
2022-11-06T04:47:49.519Z,9.27
2022-11-06T04:50:20.561Z,10.00
2022-11-06T04:52:48.058Z,9.50
2022-11-06T04:55:14.428Z,8.43
2022-11-06T04:57:40.874Z,9.27
2022-11-06T05:00:08.108Z,9.43
2022-11-06T05:02:34.760Z,8.87
2022-11-06T05:05:01.147Z,8.43
2022-11-06T05:07:27.527Z,9.20
2022-11-06T05:09:53.969Z,8.93
2022-11-06T05:12:20.529Z,8.43
2022-11-06T05:14:46.949Z,7.83
2022-11-06T05:17:13.410Z,8.07
2022-11-06T05:19:39.855Z,8.13
2022-11-06T05:22:24.945Z,8.50
2022-11-06T05:24:51.382Z,7.70
2022-11-06T05:27:17.879Z,7.60
2022-11-06T05:29:44.553Z,6.60
2022-11-06T05:32:10.969Z,7.40
2022-11-06T05:34:37.412Z,7.00
2022-11-06T05:37:03.916Z,7.17
2022-11-06T05:39:30.356Z,7.37
2022-11-06T05:41:56.749Z,7.77
2022-11-06T05:44:23.210Z,7.60
2022-11-06T05:46:50.342Z,7.20
2022-11-06T05:49:18.247Z,6.30
2022-11-06T05:51:45.044Z,7.17
2022-11-06T05:54:11.422Z,6.70
2022-11-06T05:56:37.877Z,6.90
2022-11-06T05:59:04.489Z,7.10
2022-11-06T06:01:31.017Z,6.23
2022-11-06T06:03:57.612Z,7.27
2022-11-06T06:06:24.103Z,6.23
2022-11-06T06:08:50.486Z,6.00
2022-11-06T06:11:16.945Z,5.97
2022-11-06T06:13:43.450Z,6.27
2022-11-06T06:16:09.936Z,5.50
2022-11-06T06:18:36.387Z,5.30
2022-11-06T06:21:02.799Z,5.70
2022-11-06T06:23:29.209Z,6.03
2022-11-06T06:25:56.810Z,5.80
2022-11-06T06:28:23.228Z,5.17
2022-11-06T06:30:49.635Z,5.23
2022-11-06T06:33:16.012Z,5.83
2022-11-06T06:35:42.372Z,5.93
2022-11-06T06:38:08.838Z,5.73
2022-11-06T06:40:35.270Z,5.70
2022-11-06T06:43:01.635Z,6.07
2022-11-06T06:45:28.071Z,5.97
2022-11-06T06:47:54.544Z,5.33
2022-11-06T06:50:21.061Z,5.27
2022-11-06T06:52:47.634Z,5.30
2022-11-06T06:55:14.234Z,5.47
2022-11-06T06:57:40.694Z,5.23
2022-11-06T07:00:07.941Z,5.10
2022-11-06T07:02:34.366Z,4.87
2022-11-06T07:05:00.778Z,5.00
2022-11-06T07:07:27.201Z,4.87
2022-11-06T07:09:53.620Z,4.87
2022-11-06T07:12:19.994Z,4.43
2022-11-06T07:14:46.370Z,4.83
2022-11-06T07:17:12.908Z,4.60
2022-11-06T07:19:39.325Z,3.20
2022-11-06T07:22:05.775Z,3.87
2022-11-06T07:24:32.190Z,3.67
2022-11-06T07:26:58.632Z,4.07
2022-11-06T07:29:25.028Z,4.03
2022-11-06T07:31:51.416Z,3.17
2022-11-06T07:34:17.830Z,3.03
2022-11-06T07:36:44.271Z,3.73
2022-11-06T07:39:10.797Z,3.17
2022-11-06T07:41:37.860Z,3.10
2022-11-06T07:44:05.155Z,2.97
2022-11-06T07:46:31.779Z,2.57
2022-11-06T07:48:58.148Z,2.90
2022-11-06T07:51:24.568Z,2.67
2022-11-06T07:53:50.932Z,2.90
2022-11-06T07:56:17.347Z,3.17
2022-11-06T07:58:43.729Z,2.50
2022-11-06T08:01:18.486Z,2.43
2022-11-06T08:03:45.242Z,2.80
2022-11-06T08:06:12.044Z,2.30
2022-11-06T08:08:38.528Z,2.60
2022-11-06T08:11:07.212Z,2.43
2022-11-06T08:13:35.078Z,2.23
2022-11-06T08:16:10.959Z,3.07
2022-11-06T08:18:37.936Z,2.63
2022-11-06T08:21:05.240Z,2.17
2022-11-06T08:23:31.972Z,2.30
2022-11-06T08:26:00.819Z,2.37
2022-11-06T08:28:28.041Z,2.23
2022-11-06T08:30:55.362Z,2.23
2022-11-06T08:33:22.993Z,2.70
2022-11-06T08:35:49.426Z,2.30
2022-11-06T08:38:16.901Z,3.00
2022-11-06T08:40:43.381Z,1.90
2022-11-06T08:43:11.075Z,2.33
2022-11-06T08:45:40.518Z,2.07
2022-11-06T08:48:08.774Z,2.10
2022-11-06T08:50:37.174Z,1.90
2022-11-06T08:53:04.471Z,2.30
2022-11-06T08:55:31.452Z,2.03
2022-11-06T08:57:57.861Z,2.30
2022-11-06T09:00:24.799Z,2.40
2022-11-06T09:02:51.357Z,1.97
2022-11-06T09:05:17.712Z,2.23
2022-11-06T09:07:44.118Z,2.33
2022-11-06T09:10:10.511Z,1.97
2022-11-06T09:12:36.915Z,2.33
2022-11-06T09:15:03.483Z,1.97
2022-11-06T09:17:29.858Z,1.80
2022-11-06T09:19:56.270Z,2.10
2022-11-06T09:22:22.693Z,1.93
2022-11-06T09:25:03.140Z,2.13
2022-11-06T09:27:30.386Z,1.87
2022-11-06T09:29:56.960Z,1.87
2022-11-06T09:32:24.017Z,1.80
2022-11-06T09:34:50.781Z,1.70
2022-11-06T09:37:17.174Z,1.97
2022-11-06T09:39:43.717Z,1.77
2022-11-06T09:42:31.488Z,1.50
2022-11-06T09:45:08.784Z,2.43
2022-11-06T09:47:41.581Z,2.27
2022-11-06T09:50:17.128Z,2.27
2022-11-06T09:52:54.520Z,1.70
2022-11-06T09:55:30.365Z,1.90
2022-11-06T09:58:01.715Z,1.43
2022-11-06T10:00:28.247Z,1.87
2022-11-06T10:03:00.976Z,2.17
2022-11-06T10:05:31.183Z,2.13
2022-11-06T10:08:00.376Z,2.20
2022-11-06T10:10:51.681Z,1.87
2022-11-06T10:13:22.734Z,2.77
2022-11-06T10:16:14.702Z,1.73
2022-11-06T10:18:58.696Z,2.20
2022-11-06T10:21:41.810Z,2.30
2022-11-06T10:24:20.775Z,1.53
2022-11-06T10:26:57.505Z,2.20
2022-11-06T10:29:38.921Z,2.17
2022-11-06T10:32:32.905Z,2.17
2022-11-06T10:35:37.365Z,1.90
2022-11-06T10:38:10.045Z,1.90
2022-11-06T10:40:36.750Z,1.80
2022-11-06T10:43:34.650Z,1.20
2022-11-06T10:46:27.967Z,1.53
2022-11-06T10:49:00.753Z,1.53
2022-11-06T10:51:43.448Z,1.57
2022-11-06T10:55:02.329Z,1.60
2022-11-06T10:57:40.454Z,1.53
2022-11-06T11:00:11.790Z,1.60
2022-11-06T11:02:44.580Z,1.80
2022-11-06T11:05:17.148Z,2.20
2022-11-06T11:07:45.957Z,2.20
2022-11-06T11:10:28.035Z,2.37
2022-11-06T11:12:56.949Z,1.90
2022-11-06T11:15:25.963Z,1.93
2022-11-06T11:18:07.428Z,1.90
2022-11-06T11:20:35.674Z,2.10
2022-11-06T11:23:06.388Z,2.30
2022-11-06T11:25:33.289Z,2.17
2022-11-06T11:28:04.630Z,2.17
2022-11-06T11:30:31.651Z,2.20
2022-11-06T11:32:58.565Z,2.20
2022-11-06T11:35:30.665Z,2.10
2022-11-06T11:38:07.340Z,2.13
2022-11-06T11:40:38.618Z,2.10
2022-11-06T11:43:26.325Z,2.03
2022-11-06T11:46:17.179Z,1.70
2022-11-06T11:48:46.490Z,1.60
2022-11-06T11:51:33.968Z,2.33
2022-11-06T11:54:05.328Z,2.13
2022-11-06T11:57:02.337Z,2.17
2022-11-06T11:59:32.094Z,2.00
2022-11-06T12:02:16.299Z,1.90
2022-11-06T12:04:46.762Z,1.60
2022-11-06T12:07:29.216Z,1.50
2022-11-06T12:09:56.840Z,1.20
2022-11-06T12:12:31.323Z,1.90
2022-11-06T12:15:03.446Z,1.60
2022-11-06T12:17:31.004Z,1.40
2022-11-06T12:20:00.151Z,1.40
2022-11-06T12:22:35.685Z,1.83
2022-11-06T12:25:16.067Z,1.43
2022-11-06T12:27:51.167Z,1.57
2022-11-06T12:30:18.950Z,2.00
2022-11-06T12:33:10.637Z,1.50
2022-11-06T12:35:42.539Z,2.00
2022-11-06T12:38:35.813Z,1.50
2022-11-06T12:41:15.266Z,1.83
2022-11-06T12:43:44.594Z,1.53
2022-11-06T12:46:25.016Z,1.63
2022-11-06T12:49:33.089Z,2.13
2022-11-06T12:52:35.259Z,2.27
2022-11-06T12:55:40.723Z,1.90
2022-11-06T12:58:29.015Z,2.07
2022-11-06T13:01:19.333Z,2.27
2022-11-06T13:04:07.140Z,1.93
2022-11-06T13:07:00.053Z,2.40
2022-11-06T13:09:32.186Z,2.20
2022-11-06T13:12:31.038Z,1.67
2022-11-06T13:15:19.810Z,1.97
2022-11-06T13:18:26.552Z,1.90
2022-11-06T13:21:17.845Z,2.17
2022-11-06T13:23:50.237Z,1.80
2022-11-06T13:26:27.412Z,1.60
2022-11-06T13:28:59.063Z,2.00
2022-11-06T13:31:35.872Z,1.53
2022-11-06T13:34:03.855Z,1.60
2022-11-06T13:36:35.405Z,1.67
2022-11-06T13:39:18.128Z,1.80
2022-11-06T13:41:44.599Z,1.87
2022-11-06T13:44:18.258Z,1.80
2022-11-06T13:47:03.240Z,1.90
2022-11-06T13:49:47.752Z,2.03
2022-11-06T13:52:29.005Z,2.10
2022-11-06T13:55:07.562Z,1.70
2022-11-06T13:57:52.782Z,1.80
2022-11-06T14:00:51.843Z,2.00
2022-11-06T14:03:52.304Z,1.33
2022-11-06T14:06:21.818Z,1.47
2022-11-06T14:08:52.717Z,1.50
2022-11-06T14:11:36.698Z,1.50
2022-11-06T14:14:24.268Z,1.60
2022-11-06T14:17:13.780Z,1.43
2022-11-06T14:20:01.481Z,1.70
2022-11-06T14:22:36.273Z,1.73
2022-11-06T14:25:27.343Z,1.50
2022-11-06T14:27:53.713Z,1.30
2022-11-06T14:30:50.127Z,1.50
2022-11-06T14:33:41.937Z,1.37
2022-11-06T14:36:23.736Z,1.47
2022-11-06T14:38:51.373Z,1.43
2022-11-06T14:41:53.905Z,1.27
2022-11-06T14:44:30.169Z,0.90
2022-11-06T14:47:03.085Z,1.13
2022-11-06T14:49:42.075Z,0.80
2022-11-06T14:52:12.792Z,1.20
2022-11-06T14:54:42.813Z,1.20
2022-11-06T14:57:15.881Z,1.20
2022-11-06T14:59:43.016Z,1.10
2022-11-06T15:02:19.291Z,1.40
2022-11-06T15:05:09.074Z,1.00
2022-11-06T15:08:10.650Z,1.20
2022-11-06T15:10:43.007Z,0.90
2022-11-06T15:13:23.994Z,1.20
2022-11-06T15:15:55.545Z,0.90
2022-11-06T15:18:24.376Z,0.93
2022-11-06T15:20:55.189Z,1.00
2022-11-06T15:23:26.928Z,1.37
2022-11-06T15:26:32.309Z,1.60
2022-11-06T15:29:04.724Z,1.50
2022-11-06T15:31:32.800Z,1.47
2022-11-06T15:34:05.653Z,1.10
2022-11-06T15:36:40.498Z,1.27
2022-11-06T15:39:37.892Z,1.07
2022-11-06T15:42:08.836Z,1.27
2022-11-06T15:44:40.157Z,1.13
2022-11-06T15:47:22.895Z,1.30
2022-11-06T15:50:15.493Z,1.23
2022-11-06T15:52:42.801Z,1.10
2022-11-06T15:55:32.080Z,1.33
2022-11-06T15:58:30.420Z,1.40
2022-11-06T16:00:58.893Z,1.27
2022-11-06T16:03:28.721Z,1.10
2022-11-06T16:05:58.642Z,1.60
2022-11-06T16:08:28.132Z,1.43
2022-11-06T16:10:55.601Z,1.47
2022-11-06T16:13:24.895Z,1.70
2022-11-06T16:16:00.616Z,1.30
2022-11-06T16:18:32.435Z,1.50
2022-11-06T16:21:09.379Z,1.33
2022-11-06T16:23:44.927Z,1.40
2022-11-06T16:26:15.671Z,1.33
2022-11-06T16:28:44.229Z,1.47
2022-11-06T16:31:15.512Z,1.80
2022-11-06T16:33:54.114Z,1.80
2022-11-06T16:36:20.615Z,1.70
2022-11-06T16:38:47.360Z,1.63
2022-11-06T16:41:39.545Z,1.60
2022-11-06T16:44:38.497Z,1.27
2022-11-06T16:47:04.818Z,1.53
2022-11-06T16:49:33.609Z,1.40
2022-11-06T16:52:00.282Z,1.67
2022-11-06T16:54:31.403Z,1.57
2022-11-06T16:57:09.774Z,1.47
2022-11-06T16:59:37.289Z,1.90
2022-11-06T17:02:04.489Z,1.70
2022-11-06T17:04:31.042Z,1.33
2022-11-06T17:06:58.561Z,1.90
2022-11-06T17:09:33.823Z,1.47
2022-11-06T17:12:01.625Z,1.77
2022-11-06T17:14:28.306Z,1.90
2022-11-06T17:17:00.541Z,1.70
2022-11-06T17:19:28.553Z,1.70
2022-11-06T17:21:55.564Z,2.43
2022-11-06T17:24:38.099Z,1.50
2022-11-06T17:27:05.275Z,2.07
2022-11-06T17:29:33.512Z,2.17
2022-11-06T17:31:59.964Z,2.40
2022-11-06T17:34:26.313Z,2.50
2022-11-06T17:36:52.883Z,1.83
2022-11-06T17:39:19.456Z,2.60
2022-11-06T17:41:45.842Z,2.67
2022-11-06T17:44:13.082Z,2.33
2022-11-06T17:46:45.458Z,2.23
2022-11-06T17:49:18.162Z,3.03
2022-11-06T17:51:59.699Z,3.37
2022-11-06T17:54:30.322Z,3.67
2022-11-06T17:56:56.928Z,3.20
2022-11-06T17:59:26.594Z,3.47
2022-11-06T18:01:54.946Z,3.70
2022-11-06T18:04:23.513Z,3.10
2022-11-06T18:06:52.162Z,4.23
2022-11-06T18:09:19.980Z,3.97
2022-11-06T18:11:49.253Z,4.43
2022-11-06T18:14:16.113Z,3.90
2022-11-06T18:16:44.015Z,4.80
2022-11-06T18:19:16.884Z,3.50
2022-11-06T18:21:43.452Z,4.33
2022-11-06T18:24:09.872Z,4.77
2022-11-06T18:26:37.400Z,4.80
2022-11-06T18:29:05.501Z,4.20
2022-11-06T18:31:32.084Z,4.87
2022-11-06T18:33:58.506Z,5.07
2022-11-06T18:36:24.986Z,4.57
2022-11-06T18:38:51.468Z,5.07
2022-11-06T18:41:20.788Z,5.87
2022-11-06T18:43:47.343Z,5.63
2022-11-06T18:46:16.196Z,5.07
2022-11-06T18:48:44.520Z,5.10
2022-11-06T18:51:32.381Z,4.83
2022-11-06T18:54:02.337Z,5.73
2022-11-06T18:56:29.834Z,4.80
2022-11-06T18:58:56.643Z,6.07
2022-11-06T19:01:23.483Z,5.00
2022-11-06T19:03:50.257Z,5.83
2022-11-06T19:06:19.077Z,5.13
2022-11-06T19:08:45.524Z,5.27
2022-11-06T19:11:15.262Z,4.50
2022-11-06T19:13:47.565Z,4.40
2022-11-06T19:16:15.395Z,4.60
2022-11-06T19:18:41.978Z,3.87
2022-11-06T19:21:10.878Z,4.23
2022-11-06T19:23:39.141Z,5.17
2022-11-06T19:28:58.464Z,3.67
2022-11-06T19:31:29.156Z,5.20
2022-11-06T19:33:56.909Z,4.67
2022-11-06T19:36:25.037Z,4.83
2022-11-06T19:38:51.669Z,4.53
2022-11-06T19:41:18.178Z,4.60
2022-11-06T19:43:44.568Z,5.80
2022-11-06T19:46:11.101Z,5.57
2022-11-06T19:48:37.524Z,5.10
2022-11-06T19:51:08.883Z,4.57
2022-11-06T19:53:35.296Z,5.90
2022-11-06T19:56:09.297Z,5.17
2022-11-06T19:58:36.646Z,4.53
2022-11-06T20:01:07.937Z,4.80
2022-11-06T20:03:34.870Z,4.93
2022-11-06T20:06:06.453Z,4.50
2022-11-06T20:08:34.383Z,4.10
2022-11-06T20:11:07.407Z,4.00
2022-11-06T20:13:36.461Z,4.87
2022-11-06T20:16:04.499Z,4.40
2022-11-06T20:18:31.675Z,4.10
2022-11-06T20:21:06.907Z,4.47
2022-11-06T20:23:34.086Z,4.30
2022-11-06T20:26:00.728Z,4.50
2022-11-06T20:28:27.391Z,4.13
2022-11-06T20:30:54.277Z,4.40
2022-11-06T20:33:20.765Z,4.60
2022-11-06T20:35:47.215Z,3.10
2022-11-06T20:38:14.611Z,4.77
2022-11-06T20:40:43.773Z,3.27
2022-11-06T20:43:10.333Z,4.27
2022-11-06T20:45:37.471Z,3.47
2022-11-06T20:48:05.777Z,3.87
2022-11-06T20:50:32.260Z,4.30
2022-11-06T20:52:58.820Z,3.83
2022-11-06T20:55:25.363Z,4.53
2022-11-06T20:57:52.037Z,4.17
2022-11-06T21:00:18.845Z,3.97
2022-11-06T21:02:46.490Z,3.37
2022-11-06T21:05:14.950Z,3.70
2022-11-06T21:07:41.913Z,3.67
2022-11-06T21:10:09.969Z,4.40
2022-11-06T21:12:36.351Z,4.20
2022-11-06T21:15:03.013Z,3.57
2022-11-06T21:17:29.474Z,3.80
2022-11-06T21:19:55.842Z,3.50
2022-11-06T21:22:22.208Z,3.57
2022-11-06T21:24:49.069Z,3.20
2022-11-06T21:27:15.487Z,3.40
2022-11-06T21:29:42.027Z,3.23
2022-11-06T21:32:08.419Z,3.50
2022-11-06T21:34:34.952Z,3.23
2022-11-06T21:37:03.050Z,3.50
2022-11-06T21:39:34.578Z,3.67
2022-11-06T21:42:02.630Z,3.00
2022-11-06T21:44:29.026Z,3.10
2022-11-06T21:46:55.411Z,3.50
2022-11-06T21:49:21.784Z,3.37
2022-11-06T21:51:48.161Z,2.43
2022-11-06T21:54:33.310Z,2.50
2022-11-06T21:56:59.733Z,2.13
2022-11-06T21:59:28.344Z,2.73
2022-11-06T22:01:55.050Z,2.40
2022-11-06T22:04:21.629Z,2.87
2022-11-06T22:06:48.029Z,2.63
2022-11-06T22:09:24.424Z,2.73
2022-11-06T22:11:51.905Z,2.33
2022-11-06T22:14:18.424Z,2.73
2022-11-06T22:16:46.725Z,1.90
2022-11-06T22:19:14.597Z,2.73
2022-11-06T22:21:41.665Z,2.90
2022-11-06T22:24:10.556Z,3.07
2022-11-06T22:26:37.783Z,3.13
2022-11-06T22:29:08.576Z,3.63
2022-11-06T22:31:35.533Z,3.07
2022-11-06T22:34:02.299Z,2.43
2022-11-06T22:36:28.746Z,2.80
2022-11-06T22:38:55.531Z,2.30
2022-11-06T22:41:24.239Z,3.73
2022-11-06T22:43:51.892Z,2.83
2022-11-06T22:46:23.460Z,2.73
2022-11-06T22:48:51.365Z,2.83
2022-11-06T22:51:21.257Z,2.70
2022-11-06T22:53:48.138Z,3.07
2022-11-06T22:56:14.547Z,3.40
2022-11-06T22:58:42.637Z,3.43
2022-11-06T23:01:09.807Z,2.03
2022-11-06T23:03:36.644Z,2.77
2022-11-06T23:06:05.737Z,3.23
2022-11-06T23:08:32.291Z,4.07
2022-11-06T23:10:59.368Z,3.53
2022-11-06T23:13:25.873Z,3.40
2022-11-06T23:16:03.637Z,3.80
2022-11-06T23:18:30.061Z,3.40
2022-11-06T23:20:56.634Z,2.13
2022-11-06T23:23:23.409Z,3.93
2022-11-06T23:25:49.797Z,2.70
2022-11-06T23:28:16.357Z,2.23
2022-11-06T23:30:42.940Z,3.17
2022-11-06T23:33:09.394Z,2.83
2022-11-06T23:35:35.985Z,2.20
2022-11-06T23:38:02.423Z,2.80
2022-11-06T23:40:28.853Z,2.50
2022-11-06T23:42:57.148Z,2.20
2022-11-06T23:45:42.204Z,2.23
2022-11-06T23:48:15.898Z,2.57
2022-11-06T23:50:47.089Z,2.50
2022-11-06T23:53:15.443Z,3.23
2022-11-06T23:55:42.317Z,2.30
2022-11-06T23:58:09.020Z,2.20
